»·PEaware :: N822JH KSZP-L52

N822JH :: KSZP-L52

FLIGHT INFORMATION

Flight Status: Arrived
Operator: Privately registered:
United States
More flights under this callsign
Pilot: Anonymous 16594 (16594)
Aircraft: PIPER PA-24 COMMANCHE
(PA24)
More flights by this aircraft type
Origin: KSZP Santa Paula
United States
Destination: L52 Oceano Co
United States
More flights between these airports :: More routes between these airports
Route: DCT
File this flight plan on PilotEdge
Remarks:
Altitude:
(Current/Filed)
8,500ft
Speed:
(Current/Filed)
158kts
Departed: 03-Sep-17 12:28 PM
Arrived: 03-Sep-17 01:11 PM
Distance/Time
Traveled:
89nm/0:43
Distance/Time
To Go:
Arrived

Flight Plot

Page will automatically refresh every two minutes.

Flight plan parsing failed; only flown route is shown


Map Options




Map Legend


Flown Route
Filed Route
Departure Airport
Arrival Airport
Navaid (VOR, NDB)
Fix

Horizontal Profiles

Position Reports

Time Latitude Longitude Heading Altitude Ground
Speed
03-Sep-17 12:26 34.346318 -119.061853 334 248ft 0kts
03-Sep-17 12:27 34.346319 -119.061854 334 248ft 0kts
03-Sep-17 12:28 34.346325 -119.061857 334 248ft 0kts
03-Sep-17 12:29 34.346330 -119.061860 334 248ft 0kts
03-Sep-17 12:30 34.346335 -119.061863 334 248ft 0kts
03-Sep-17 12:31 34.349065 -119.057808 347 248ft 0kts
03-Sep-17 12:32 34.343136 -119.067793 228 434ft 98kts
03-Sep-17 12:33 34.332127 -119.100349 289 1617ft 131kts
03-Sep-17 12:34 34.351406 -119.137483 296 2507ft 129kts
03-Sep-17 12:35 34.363385 -119.180442 284 4086ft 143kts
03-Sep-17 12:36 34.379252 -119.225206 287 5370ft 147kts
03-Sep-17 12:37 34.389856 -119.273558 286 5956ft 150kts
03-Sep-17 12:38 34.407360 -119.319710 291 7074ft 154kts
03-Sep-17 12:39 34.428703 -119.365756 293 8154ft 155kts
03-Sep-17 12:40 34.444849 -119.415170 295 8282ft 154kts
03-Sep-17 12:41 34.459974 -119.463135 291 8411ft 154kts
03-Sep-17 12:42 34.464946 -119.513354 255 8388ft 161kts
03-Sep-17 12:43 34.477440 -119.562021 300 8550ft 152kts
03-Sep-17 12:44 34.497192 -119.608407 299 8542ft 155kts
03-Sep-17 12:45 34.518201 -119.656569 298 8603ft 175kts
03-Sep-17 12:46 34.541490 -119.709941 298 9030ft 181kts
03-Sep-17 12:47 34.561724 -119.757539 303 8403ft 140kts
03-Sep-17 12:48 34.580432 -119.801746 298 8467ft 154kts
03-Sep-17 12:49 34.599641 -119.847834 297 8509ft 154kts
03-Sep-17 12:50 34.619902 -119.894598 299 8693ft 163kts
03-Sep-17 12:51 34.640597 -119.944426 298 8571ft 156kts
03-Sep-17 12:52 34.660523 -119.991484 298 8536ft 154kts
03-Sep-17 12:53 34.681104 -120.037711 312 8525ft 156kts
03-Sep-17 12:54 34.709271 -120.078193 313 8531ft 156kts
03-Sep-17 12:55 34.737465 -120.118319 313 8530ft 156kts
03-Sep-17 12:56 34.766800 -120.157104 315 8527ft 156kts
03-Sep-17 12:57 34.796845 -120.195165 316 8528ft 155kts
03-Sep-17 12:58 34.828474 -120.233621 321 8547ft 171kts
03-Sep-17 12:59 34.862821 -120.270387 322 8535ft 158kts
03-Sep-17 13:00 34.895660 -120.304952 323 8531ft 154kts
03-Sep-17 13:01 34.929803 -120.338124 326 8544ft 172kts
03-Sep-17 13:02 34.968978 -120.370870 327 8522ft 160kts
03-Sep-17 13:03 35.004183 -120.401697 326 8517ft 154kts
03-Sep-17 13:04 35.038488 -120.431964 328 8384ft 148kts
03-Sep-17 13:05 35.073366 -120.460003 331 6874ft 146kts
03-Sep-17 13:06 35.095726 -120.499764 271 5780ft 161kts
03-Sep-17 13:07 35.091975 -120.550985 272 4559ft 147kts
03-Sep-17 13:08 35.109848 -120.594312 292 3515ft 141kts
03-Sep-17 13:09 35.142119 -120.595020 64 3090ft 158kts
03-Sep-17 13:10 35.124314 -120.568899 233 1385ft 130kts
03-Sep-17 13:11 35.116514 -120.609280 279 1082ft 127kts
03-Sep-17 13:12 35.134702 -120.644527 280 705ft 116kts
03-Sep-17 13:13 35.115952 -120.641751 142 570ft 107kts
03-Sep-17 13:14 35.100200 -120.619844 137 17ft 49kts
03-Sep-17 13:15 35.100845 -120.622149 304 17ft 21kts
03-Sep-17 13:16 35.103530 -120.624058 36 17ft 3kts
03-Sep-17 13:17 35.103539 -120.624050 35 17ft 0kts

Navigation Log

Ident Type
Flight plan parsing failed, navigation log unavailable